createdAt,value
2023-01-15T00:02:09.882Z,90.20
2023-01-15T00:05:11.318Z,90.20
2023-01-15T00:08:12.636Z,90.20
2023-01-15T00:11:14.487Z,90.20
2023-01-15T00:14:15.890Z,90.20
2023-01-15T00:17:17.364Z,90.20
2023-01-15T00:20:18.814Z,90.20
2023-01-15T00:23:40.102Z,90.20
2023-01-15T00:27:00.404Z,90.20
2023-01-15T00:30:01.784Z,90.50
2023-01-15T00:33:03.261Z,90.20
2023-01-15T00:36:04.997Z,90.20
2023-01-15T00:39:06.389Z,90.20
2023-01-15T00:42:08.501Z,90.10
2023-01-15T00:45:11.284Z,90.20
2023-01-15T00:48:12.885Z,90.20
2023-01-15T00:51:14.200Z,90.10
2023-01-15T00:54:15.596Z,90.10
2023-01-15T00:57:16.957Z,90.10
2023-01-15T01:00:18.471Z,90.10
2023-01-15T01:03:20.090Z,90.10
2023-01-15T01:06:21.647Z,90.10
2023-01-15T01:09:23.059Z,90.10
2023-01-15T01:12:25.686Z,90.10
2023-01-15T01:15:27.037Z,90.10
2023-01-15T01:18:29.379Z,90.00
2023-01-15T01:21:31.219Z,90.00
2023-01-15T01:24:33.765Z,90.00
2023-01-15T01:27:35.128Z,90.00
2023-01-15T01:30:37.729Z,90.00
2023-01-15T01:33:39.133Z,90.00
2023-01-15T01:36:42.296Z,89.90
2023-01-15T01:39:45.081Z,89.90
2023-01-15T01:42:46.584Z,89.90
2023-01-15T01:45:48.078Z,89.80
2023-01-15T01:48:53.562Z,89.80
2023-01-15T01:52:02.011Z,89.80
2023-01-15T01:55:05.393Z,89.80
2023-01-15T01:58:10.284Z,89.80
2023-01-15T02:01:11.786Z,89.70
2023-01-15T02:04:13.485Z,89.60
2023-01-15T02:07:17.073Z,89.60
2023-01-15T02:10:18.691Z,89.70
2023-01-15T02:13:39.727Z,89.60
2023-01-15T02:16:56.662Z,89.50
2023-01-15T02:20:17.018Z,89.50
2023-01-15T02:23:33.333Z,89.50
2023-01-15T02:26:50.119Z,89.50
2023-01-15T02:30:24.747Z,89.50
2023-01-15T02:33:38.688Z,89.50
2023-01-15T02:36:46.385Z,89.50
2023-01-15T02:39:59.118Z,89.40
2023-01-15T02:43:01.015Z,89.40
2023-01-15T02:46:04.659Z,89.40
2023-01-15T02:49:08.626Z,89.30
2023-01-15T02:52:20.378Z,89.30
2023-01-15T02:55:26.153Z,89.30
2023-01-15T02:58:32.264Z,89.30
2023-01-15T03:01:42.345Z,89.20
2023-01-15T03:04:49.439Z,89.20
2023-01-15T03:07:55.339Z,89.20
2023-01-15T03:11:02.819Z,89.20
2023-01-15T03:14:14.895Z,89.10
2023-01-15T03:17:25.627Z,89.00
2023-01-15T03:20:29.806Z,89.00
2023-01-15T03:23:37.260Z,89.00
2023-01-15T03:26:38.809Z,88.80
2023-01-15T03:29:44.580Z,88.90
2023-01-15T03:32:47.022Z,88.80
2023-01-15T03:35:58.388Z,88.80
2023-01-15T03:39:21.451Z,88.70
2023-01-15T03:42:41.722Z,88.70
2023-01-15T03:45:49.045Z,88.70
2023-01-15T03:49:20.660Z,88.70
2023-01-15T03:52:44.886Z,88.60
2023-01-15T03:56:24.338Z,88.60
2023-01-15T03:59:34.650Z,88.60
2023-01-15T04:02:38.495Z,88.60
2023-01-15T04:05:41.633Z,88.50
2023-01-15T04:08:45.012Z,88.50
2023-01-15T04:11:47.173Z,88.50
2023-01-15T04:14:48.660Z,88.50
2023-01-15T04:17:52.983Z,88.50
2023-01-15T04:20:56.740Z,88.40
2023-01-15T04:23:58.117Z,88.40
2023-01-15T04:26:59.525Z,88.40
2023-01-15T04:30:00.847Z,88.40
2023-01-15T04:33:02.851Z,88.30
2023-01-15T04:36:04.609Z,88.20
2023-01-15T04:39:05.992Z,88.20
2023-01-15T04:42:31.553Z,88.20
2023-01-15T04:45:32.937Z,88.20
2023-01-15T04:48:34.327Z,88.20
2023-01-15T04:51:36.015Z,88.10
2023-01-15T04:54:38.489Z,88.10
2023-01-15T04:57:39.848Z,88.10
2023-01-15T05:00:41.212Z,88.10
2023-01-15T05:03:43.129Z,88.00
2023-01-15T05:06:44.474Z,88.00
2023-01-15T05:09:46.798Z,87.90
2023-01-15T05:12:48.169Z,87.90
2023-01-15T05:15:49.511Z,87.90
2023-01-15T05:18:53.049Z,87.90
2023-01-15T05:21:54.453Z,87.90
2023-01-15T05:24:55.802Z,88.00
2023-01-15T05:27:57.154Z,87.90
2023-01-15T05:30:58.625Z,87.90
2023-01-15T05:34:00.276Z,87.80
2023-01-15T05:37:01.651Z,87.80
2023-01-15T05:40:03.497Z,87.70
2023-01-15T05:43:05.021Z,88.40
2023-01-15T05:46:06.442Z,87.70
2023-01-15T05:49:11.141Z,87.70
2023-01-15T05:52:12.457Z,87.80
2023-01-15T05:55:13.789Z,87.70
2023-01-15T05:58:15.105Z,87.70
2023-01-15T06:01:16.668Z,87.80
2023-01-15T06:04:20.631Z,87.80
2023-01-15T06:07:21.986Z,87.80
2023-01-15T06:10:23.339Z,87.70
2023-01-15T06:13:24.713Z,87.70
2023-01-15T06:16:26.232Z,87.70
2023-01-15T06:19:27.680Z,87.70
2023-01-15T06:22:29.270Z,87.60
2023-01-15T06:25:34.775Z,87.60
2023-01-15T06:28:36.097Z,87.40
2023-01-15T06:31:37.545Z,87.40
2023-01-15T06:34:40.785Z,87.40
2023-01-15T06:37:42.127Z,87.50
2023-01-15T06:40:43.597Z,87.50
2023-01-15T06:44:03.421Z,87.50
2023-01-15T06:47:20.813Z,87.40
2023-01-15T06:50:22.788Z,87.50
2023-01-15T06:53:24.212Z,87.60
2023-01-15T06:56:25.535Z,87.50
2023-01-15T06:59:26.886Z,87.60
2023-01-15T07:02:28.232Z,87.70
2023-01-15T07:05:29.674Z,87.60
2023-01-15T07:08:31.056Z,87.70
2023-01-15T07:11:32.738Z,87.70
2023-01-15T07:14:34.239Z,87.70
2023-01-15T07:17:35.628Z,87.70
2023-01-15T07:20:36.982Z,87.70
2023-01-15T07:23:38.303Z,87.70
2023-01-15T07:26:41.107Z,87.70
2023-01-15T07:29:42.406Z,87.70
2023-01-15T07:32:43.734Z,87.60
2023-01-15T07:35:45.077Z,87.60
2023-01-15T07:38:46.464Z,87.50
2023-01-15T07:42:06.535Z,87.40
2023-01-15T07:45:28.558Z,87.40
2023-01-15T07:48:48.645Z,87.40
2023-01-15T07:51:49.972Z,87.30
2023-01-15T07:54:51.421Z,87.50
2023-01-15T07:57:53.294Z,87.20
2023-01-15T08:00:54.718Z,87.00
2023-01-15T08:03:56.080Z,86.90
2023-01-15T08:07:01.558Z,86.90
2023-01-15T08:10:03.180Z,87.50
2023-01-15T08:13:23.211Z,86.90
2023-01-15T08:16:24.636Z,86.90
2023-01-15T08:19:26.334Z,86.90
2023-01-15T08:22:27.715Z,86.90
2023-01-15T08:25:29.101Z,86.90
2023-01-15T08:28:30.406Z,86.90
2023-01-15T08:31:31.815Z,87.00
2023-01-15T08:34:33.183Z,87.10
2023-01-15T08:37:34.811Z,87.10
2023-01-15T08:40:56.669Z,87.20
2023-01-15T08:43:59.389Z,87.20
2023-01-15T08:47:00.717Z,87.20
2023-01-15T08:50:02.071Z,87.20
2023-01-15T08:53:03.606Z,87.60
2023-01-15T08:56:16.669Z,87.20
2023-01-15T08:59:18.597Z,87.20
2023-01-15T09:02:20.116Z,87.20
2023-01-15T09:05:21.505Z,87.20
2023-01-15T09:08:22.844Z,87.20
2023-01-15T09:11:24.187Z,87.20
2023-01-15T09:14:58.689Z,87.10
2023-01-15T09:17:46.872Z,87.20
2023-01-15T09:20:48.425Z,87.20
2023-01-15T09:23:49.814Z,87.20
2023-01-15T09:26:52.789Z,87.20
2023-01-15T09:29:54.816Z,87.20
2023-01-15T09:32:56.371Z,87.30
2023-01-15T09:35:57.707Z,87.20
2023-01-15T09:39:00.807Z,87.10
2023-01-15T09:42:27.915Z,87.10
2023-01-15T09:45:43.030Z,87.00
2023-01-15T09:49:01.199Z,86.90
2023-01-15T09:52:49.813Z,87.00
2023-01-15T09:55:54.260Z,86.80
2023-01-15T09:58:58.314Z,86.90
2023-01-15T10:02:01.673Z,86.80
2023-01-15T10:05:26.186Z,87.30
2023-01-15T10:08:32.878Z,86.80
2023-01-15T10:12:01.568Z,86.70
2023-01-15T10:15:21.483Z,86.70
2023-01-15T10:18:24.476Z,86.60
2023-01-15T10:22:05.552Z,86.60
2023-01-15T10:25:16.254Z,86.40
2023-01-15T10:28:29.313Z,86.30
2023-01-15T10:31:57.782Z,86.20
2023-01-15T10:35:14.493Z,86.20
2023-01-15T10:38:36.860Z,86.20
2023-01-15T10:42:03.647Z,86.10
2023-01-15T10:45:22.395Z,86.20
2023-01-15T10:48:51.454Z,86.20
2023-01-15T10:51:55.771Z,86.10
2023-01-15T10:55:27.242Z,86.10
2023-01-15T10:58:45.594Z,85.90
2023-01-15T11:01:49.420Z,85.90
2023-01-15T11:04:50.821Z,85.90
2023-01-15T11:12:04.266Z,85.90
2023-01-15T11:15:40.060Z,85.80
2023-01-15T11:19:02.721Z,85.80
2023-01-15T11:22:14.276Z,85.80
2023-01-15T11:25:25.475Z,85.70
2023-01-15T11:28:42.633Z,85.70
2023-01-15T11:31:44.000Z,85.60
2023-01-15T11:34:56.683Z,85.60
2023-01-15T11:38:12.232Z,85.40
2023-01-15T11:41:52.874Z,85.30
2023-01-15T11:45:15.074Z,85.30
2023-01-15T11:48:42.018Z,85.40
2023-01-15T11:51:48.352Z,85.20
2023-01-15T11:54:53.336Z,85.20
2023-01-15T11:57:56.758Z,85.20
2023-01-15T12:00:59.233Z,85.20
2023-01-15T12:04:07.413Z,85.20
2023-01-15T12:07:13.313Z,85.00
2023-01-15T12:10:39.106Z,85.00
2023-01-15T12:14:03.285Z,84.90
2023-01-15T12:17:37.686Z,84.80
2023-01-15T12:20:56.254Z,84.70
2023-01-15T12:24:16.497Z,84.70
2023-01-15T12:27:39.130Z,84.80
2023-01-15T12:31:02.535Z,84.70
2023-01-15T12:34:54.976Z,84.60
2023-01-15T12:38:19.015Z,84.40
2023-01-15T12:41:53.000Z,84.70
2023-01-15T12:45:05.106Z,84.50
2023-01-15T12:48:42.836Z,84.60
2023-01-15T12:51:54.410Z,84.40
2023-01-15T12:55:08.894Z,84.70
2023-01-15T12:58:31.908Z,84.40
2023-01-15T13:02:09.073Z,84.30
2023-01-15T13:05:21.580Z,84.30
2023-01-15T13:08:36.566Z,84.30
2023-01-15T13:11:37.916Z,84.20
2023-01-15T13:14:39.619Z,84.20
2023-01-15T13:18:00.156Z,84.20
2023-01-15T13:21:12.366Z,84.10
2023-01-15T13:24:19.929Z,84.20
2023-01-15T13:27:47.269Z,84.20
2023-01-15T13:31:13.009Z,84.70
2023-01-15T13:34:23.358Z,84.10
2023-01-15T13:37:26.992Z,84.10
2023-01-15T13:40:39.927Z,84.10
2023-01-15T13:43:43.047Z,84.20
2023-01-15T13:46:46.505Z,84.20
2023-01-15T13:49:54.750Z,84.20
2023-01-15T13:53:13.013Z,84.30
2023-01-15T13:56:27.210Z,84.40
2023-01-15T13:59:38.026Z,84.40
2023-01-15T14:02:40.619Z,84.50
2023-01-15T14:05:42.091Z,84.50
2023-01-15T14:08:45.284Z,84.50
2023-01-15T14:12:07.043Z,84.60
2023-01-15T14:15:30.272Z,84.70
2023-01-15T14:19:08.281Z,84.80
2023-01-15T14:22:38.924Z,84.80
2023-01-15T14:25:43.081Z,85.00
2023-01-15T14:28:59.320Z,85.10
2023-01-15T14:32:28.625Z,85.10
2023-01-15T14:35:36.681Z,85.00
2023-01-15T14:38:51.062Z,85.10
2023-01-15T14:42:22.597Z,85.10
2023-01-15T14:45:35.631Z,85.20
2023-01-15T14:48:38.765Z,85.20
2023-01-15T14:51:49.469Z,85.20
2023-01-15T14:54:52.813Z,85.10
2023-01-15T14:58:08.374Z,85.10
2023-01-15T15:01:37.851Z,85.00
2023-01-15T15:04:44.096Z,85.10
2023-01-15T15:07:52.116Z,85.20
2023-01-15T15:10:55.503Z,85.20
2023-01-15T15:13:57.263Z,85.30
2023-01-15T15:17:01.809Z,85.30
2023-01-15T15:20:24.010Z,85.20
2023-01-15T15:24:03.190Z,85.20
2023-01-15T15:27:22.505Z,85.30
2023-01-15T15:30:23.992Z,85.30
2023-01-15T15:33:30.720Z,85.40
2023-01-15T15:36:37.634Z,85.40
2023-01-15T15:39:46.701Z,85.40
2023-01-15T15:43:40.665Z,85.40
2023-01-15T15:47:08.283Z,85.40
2023-01-15T15:50:25.205Z,85.40
2023-01-15T15:53:26.543Z,85.50
2023-01-15T15:56:30.859Z,85.50
2023-01-15T15:59:34.860Z,85.40
2023-01-15T16:02:40.797Z,85.50
2023-01-15T16:05:43.065Z,85.80
2023-01-15T16:08:52.977Z,85.50
2023-01-15T16:12:06.506Z,85.40
2023-01-15T16:15:18.633Z,85.30
2023-01-15T16:18:40.321Z,85.20
2023-01-15T16:21:42.015Z,85.10
2023-01-15T16:24:54.129Z,85.00
2023-01-15T16:27:55.673Z,84.90
2023-01-15T16:30:58.786Z,84.90
2023-01-15T16:34:00.650Z,84.80
2023-01-15T16:37:02.422Z,84.80
2023-01-15T16:40:05.391Z,84.80
2023-01-15T16:43:14.603Z,84.70
2023-01-15T16:46:18.127Z,84.80
2023-01-15T16:49:22.472Z,84.90
2023-01-15T16:52:54.233Z,85.00
2023-01-15T16:55:56.972Z,85.00
2023-01-15T16:58:58.372Z,85.10
2023-01-15T17:02:09.361Z,85.20
2023-01-15T17:05:16.811Z,85.30
2023-01-15T17:08:25.118Z,85.20
2023-01-15T17:11:29.554Z,85.20
2023-01-15T17:14:30.890Z,85.10
2023-01-15T17:17:32.365Z,85.80
2023-01-15T17:20:38.191Z,85.20
2023-01-15T17:23:42.260Z,85.30
2023-01-15T17:26:43.646Z,85.40
2023-01-15T17:29:45.168Z,85.50
2023-01-15T17:32:46.966Z,85.60
2023-01-15T17:35:48.460Z,85.60
2023-01-15T17:38:50.197Z,85.60
2023-01-15T17:41:51.562Z,85.70
2023-01-15T17:44:52.896Z,85.80
2023-01-15T17:47:54.457Z,85.80
2023-01-15T17:50:58.618Z,85.90
2023-01-15T17:54:00.055Z,85.90
2023-01-15T17:57:20.218Z,85.90
2023-01-15T18:00:40.994Z,85.90
2023-01-15T18:04:07.675Z,86.00
2023-01-15T18:07:09.837Z,86.10
2023-01-15T18:10:18.184Z,86.80
2023-01-15T18:13:19.565Z,86.30
2023-01-15T18:16:21.593Z,86.40
2023-01-15T18:19:24.903Z,86.40
2023-01-15T18:22:26.368Z,86.40
2023-01-15T18:25:27.736Z,86.50
2023-01-15T18:28:31.714Z,86.60
2023-01-15T18:31:35.860Z,86.70
2023-01-15T18:34:37.566Z,86.50
2023-01-15T18:37:38.927Z,86.60
2023-01-15T18:40:46.020Z,86.60
2023-01-15T18:44:05.906Z,86.60
2023-01-15T18:47:11.788Z,86.60
2023-01-15T18:50:15.963Z,86.60
2023-01-15T18:53:17.287Z,86.50
2023-01-15T18:56:39.737Z,86.60
2023-01-15T18:59:41.193Z,86.60
2023-01-15T19:02:42.565Z,86.50
2023-01-15T19:05:43.899Z,86.50
2023-01-15T19:08:45.215Z,86.50
2023-01-15T19:11:47.135Z,86.50
2023-01-15T19:15:07.171Z,86.60
2023-01-15T19:18:29.454Z,86.60
2023-01-15T19:21:30.822Z,86.60
2023-01-15T19:24:32.221Z,86.70
2023-01-15T19:27:33.672Z,86.70
2023-01-15T19:30:38.855Z,86.70
2023-01-15T19:33:40.244Z,86.70
2023-01-15T19:36:41.675Z,86.90
2023-01-15T19:39:43.028Z,86.80
2023-01-15T19:43:06.227Z,86.80
2023-01-15T19:46:27.464Z,86.80
2023-01-15T19:49:52.981Z,86.80
2023-01-15T19:52:55.107Z,86.70
2023-01-15T19:55:56.950Z,86.70
2023-01-15T19:58:58.298Z,86.70
2023-01-15T20:02:02.467Z,86.70
2023-01-15T20:05:05.574Z,86.70
2023-01-15T20:08:15.889Z,86.70
2023-01-15T20:11:17.199Z,86.60
2023-01-15T20:14:18.617Z,86.70
2023-01-15T20:17:20.751Z,86.60
2023-01-15T20:20:22.986Z,86.60
2023-01-15T20:23:24.394Z,86.60
2023-01-15T20:26:29.287Z,86.60
2023-01-15T20:29:30.595Z,87.30
2023-01-15T20:32:31.973Z,86.60
2023-01-15T20:35:33.374Z,86.60
2023-01-15T20:38:34.754Z,86.60
2023-01-15T20:41:54.843Z,86.60
2023-01-15T20:44:56.419Z,86.60
2023-01-15T20:48:13.081Z,86.60
2023-01-15T20:51:17.202Z,86.50
2023-01-15T20:54:19.508Z,86.70
2023-01-15T20:57:20.845Z,86.70
2023-01-15T21:00:22.880Z,87.30
2023-01-15T21:03:24.308Z,86.40
2023-01-15T21:06:25.683Z,86.50
2023-01-15T21:09:27.088Z,86.60
2023-01-15T21:12:28.393Z,86.50
2023-01-15T21:15:29.849Z,86.40
2023-01-15T21:18:34.933Z,86.50
2023-01-15T21:21:36.928Z,86.50
2023-01-15T21:24:38.296Z,86.40
2023-01-15T21:27:39.702Z,86.40
2023-01-15T21:30:43.642Z,86.40
2023-01-15T21:33:45.020Z,86.40
2023-01-15T21:36:46.459Z,86.40
2023-01-15T21:39:48.088Z,86.40
2023-01-15T21:43:07.882Z,86.40
2023-01-15T21:46:09.411Z,86.40
2023-01-15T21:49:10.787Z,86.40
2023-01-15T21:52:16.936Z,86.40
2023-01-15T21:55:18.295Z,86.50
2023-01-15T21:58:19.606Z,86.40
2023-01-15T22:01:21.101Z,86.40
2023-01-15T22:04:23.910Z,86.50
2023-01-15T22:07:25.238Z,86.50
2023-01-15T22:10:26.552Z,86.50
2023-01-15T22:13:27.952Z,86.60
2023-01-15T22:16:29.318Z,86.70
2023-01-15T22:19:31.883Z,86.60
2023-01-15T22:22:35.807Z,86.60
2023-01-15T22:25:42.153Z,86.60
2023-01-15T22:28:43.908Z,86.60
2023-01-15T22:31:45.305Z,86.60
2023-01-15T22:34:47.064Z,86.60
2023-01-15T22:37:48.389Z,86.60
2023-01-15T22:40:49.852Z,86.70
2023-01-15T22:43:51.178Z,86.70
2023-01-15T22:46:53.459Z,86.70
2023-01-15T22:49:55.192Z,86.70
2023-01-15T22:52:56.613Z,86.70
2023-01-15T22:55:58.715Z,86.80
2023-01-15T22:59:00.162Z,86.80
2023-01-15T23:02:01.534Z,86.80
2023-01-15T23:05:03.048Z,86.80
2023-01-15T23:08:04.476Z,86.80
2023-01-15T23:11:14.748Z,86.80
2023-01-15T23:14:16.540Z,86.80
2023-01-15T23:17:17.856Z,86.80
2023-01-15T23:20:19.404Z,86.80
2023-01-15T23:23:20.816Z,86.80
2023-01-15T23:26:23.128Z,86.90
2023-01-15T23:29:24.509Z,86.80
2023-01-15T23:32:25.985Z,86.80
2023-01-15T23:35:27.367Z,86.80
2023-01-15T23:38:28.757Z,86.80
2023-01-15T23:41:48.617Z,86.80
2023-01-15T23:45:08.592Z,86.80
2023-01-15T23:48:09.975Z,86.80
2023-01-15T23:51:11.310Z,86.80
2023-01-15T23:54:12.670Z,86.80
2023-01-15T23:57:15.355Z,86.80
